sensor_id;sensor_type;location;lat;lon;timestamp;pressure;altitude;pressure_sealevel;temperature
69552;BMP280;63774;45.292;11.784;2022-11-15T00:01:47;102290.69;;;20.64
69552;BMP280;63774;45.292;11.784;2022-11-15T00:04:12;102288.98;;;20.64
69552;BMP280;63774;45.292;11.784;2022-11-15T00:06:38;102290.44;;;20.64
69552;BMP280;63774;45.292;11.784;2022-11-15T00:09:03;102286.71;;;20.64
69552;BMP280;63774;45.292;11.784;2022-11-15T00:11:29;102287.58;;;20.64
69552;BMP280;63774;45.292;11.784;2022-11-15T00:13:55;102289.05;;;20.64
69552;BMP280;63774;45.292;11.784;2022-11-15T00:16:21;102284.08;;;20.64
69552;BMP280;63774;45.292;11.784;2022-11-15T00:18:46;102278.41;;;20.64
69552;BMP280;63774;45.292;11.784;2022-11-15T00:21:13;102273.08;;;20.64
69552;BMP280;63774;45.292;11.784;2022-11-15T00:23:39;102269.93;;;20.63
69552;BMP280;63774;45.292;11.784;2022-11-15T00:26:05;102269.35;;;20.63
69552;BMP280;63774;45.292;11.784;2022-11-15T00:28:30;102272.34;;;20.65
69552;BMP280;63774;45.292;11.784;2022-11-15T00:31:01;102266.41;;;20.65
69552;BMP280;63774;45.292;11.784;2022-11-15T00:33:27;102266.53;;;20.64
69552;BMP280;63774;45.292;11.784;2022-11-15T00:36:03;102270.44;;;20.65
69552;BMP280;63774;45.292;11.784;2022-11-15T00:38:33;102268.27;;;20.65
69552;BMP280;63774;45.292;11.784;2022-11-15T00:41:00;102268.54;;;20.63
69552;BMP280;63774;45.292;11.784;2022-11-15T00:43:26;102267.29;;;20.64
69552;BMP280;63774;45.292;11.784;2022-11-15T00:45:52;102256.84;;;20.63
69552;BMP280;63774;45.292;11.784;2022-11-15T00:48:18;102259.14;;;20.63
69552;BMP280;63774;45.292;11.784;2022-11-15T00:50:43;102257.48;;;20.63
69552;BMP280;63774;45.292;11.784;2022-11-15T00:53:09;102258.21;;;20.61
69552;BMP280;63774;45.292;11.784;2022-11-15T00:55:35;102258.20;;;20.62
69552;BMP280;63774;45.292;11.784;2022-11-15T00:58:00;102258.40;;;20.61
69552;BMP280;63774;45.292;11.784;2022-11-15T01:00:26;102256.30;;;20.61
69552;BMP280;63774;45.292;11.784;2022-11-15T01:02:52;102257.15;;;20.61
69552;BMP280;63774;45.292;11.784;2022-11-15T01:05:18;102251.05;;;20.61
69552;BMP280;63774;45.292;11.784;2022-11-15T01:07:43;102255.70;;;20.61
69552;BMP280;63774;45.292;11.784;2022-11-15T01:10:09;102258.56;;;20.61
69552;BMP280;63774;45.292;11.784;2022-11-15T01:12:34;102253.66;;;20.62
69552;BMP280;63774;45.292;11.784;2022-11-15T01:15:00;102258.75;;;20.62
69552;BMP280;63774;45.292;11.784;2022-11-15T01:17:26;102255.38;;;20.61
69552;BMP280;63774;45.292;11.784;2022-11-15T01:19:52;102256.52;;;20.62
69552;BMP280;63774;45.292;11.784;2022-11-15T01:22:17;102255.29;;;20.61
69552;BMP280;63774;45.292;11.784;2022-11-15T01:24:43;102256.71;;;20.62
69552;BMP280;63774;45.292;11.784;2022-11-15T01:27:09;102256.75;;;20.60
69552;BMP280;63774;45.292;11.784;2022-11-15T01:29:34;102258.92;;;20.60
69552;BMP280;63774;45.292;11.784;2022-11-15T01:32:00;102256.55;;;20.60
69552;BMP280;63774;45.292;11.784;2022-11-15T01:34:25;102254.42;;;20.61
69552;BMP280;63774;45.292;11.784;2022-11-15T01:36:51;102254.63;;;20.60
69552;BMP280;63774;45.292;11.784;2022-11-15T01:39:16;102253.40;;;20.61
69552;BMP280;63774;45.292;11.784;2022-11-15T01:41:42;102249.35;;;20.61
69552;BMP280;63774;45.292;11.784;2022-11-15T01:47:24;102241.86;;;20.61
69552;BMP280;63774;45.292;11.784;2022-11-15T01:49:53;102238.46;;;20.62
69552;BMP280;63774;45.292;11.784;2022-11-15T01:52:21;102246.61;;;20.62
69552;BMP280;63774;45.292;11.784;2022-11-15T01:54:51;102237.21;;;20.61
69552;BMP280;63774;45.292;11.784;2022-11-15T01:57:18;102237.11;;;20.61
69552;BMP280;63774;45.292;11.784;2022-11-15T01:59:45;102236.87;;;20.61
69552;BMP280;63774;45.292;11.784;2022-11-15T02:02:11;102234.55;;;20.61
69552;BMP280;63774;45.292;11.784;2022-11-15T02:04:42;102230.13;;;20.60
69552;BMP280;63774;45.292;11.784;2022-11-15T02:07:10;102223.23;;;20.59
69552;BMP280;63774;45.292;11.784;2022-11-15T02:09:37;102219.26;;;20.60
69552;BMP280;63774;45.292;11.784;2022-11-15T02:12:04;102214.99;;;20.59
69552;BMP280;63774;45.292;11.784;2022-11-15T02:14:31;102210.15;;;20.59
69552;BMP280;63774;45.292;11.784;2022-11-15T02:25:04;102203.83;;;20.61
69552;BMP280;63774;45.292;11.784;2022-11-15T02:31:10;102203.20;;;20.59
69552;BMP280;63774;45.292;11.784;2022-11-15T02:40:17;102199.22;;;20.58
69552;BMP280;63774;45.292;11.784;2022-11-15T02:42:53;102194.72;;;20.57
69552;BMP280;63774;45.292;11.784;2022-11-15T02:45:45;102192.33;;;20.57
69552;BMP280;63774;45.292;11.784;2022-11-15T02:48:14;102193.89;;;20.56
69552;BMP280;63774;45.292;11.784;2022-11-15T02:50:40;102193.67;;;20.57
69552;BMP280;63774;45.292;11.784;2022-11-15T02:53:08;102194.23;;;20.55
69552;BMP280;63774;45.292;11.784;2022-11-15T02:55:36;102194.89;;;20.55
69552;BMP280;63774;45.292;11.784;2022-11-15T03:07:02;102186.59;;;20.55
69552;BMP280;63774;45.292;11.784;2022-11-15T03:12:34;102182.63;;;20.57
69552;BMP280;63774;45.292;11.784;2022-11-15T03:15:07;102177.17;;;20.56
69552;BMP280;63774;45.292;11.784;2022-11-15T03:17:42;102180.64;;;20.58
69552;BMP280;63774;45.292;11.784;2022-11-15T03:20:10;102182.46;;;20.56
69552;BMP280;63774;45.292;11.784;2022-11-15T03:22:40;102178.77;;;20.55
69552;BMP280;63774;45.292;11.784;2022-11-15T03:25:12;102181.02;;;20.56
69552;BMP280;63774;45.292;11.784;2022-11-15T03:27:43;102183.55;;;20.55
69552;BMP280;63774;45.292;11.784;2022-11-15T03:30:09;102182.27;;;20.57
69552;BMP280;63774;45.292;11.784;2022-11-15T03:32:39;102176.79;;;20.56
69552;BMP280;63774;45.292;11.784;2022-11-15T03:35:12;102169.16;;;20.55
69552;BMP280;63774;45.292;11.784;2022-11-15T03:37:46;102171.63;;;20.55
69552;BMP280;63774;45.292;11.784;2022-11-15T03:40:14;102172.54;;;20.55
69552;BMP280;63774;45.292;11.784;2022-11-15T03:42:48;102173.05;;;20.55
69552;BMP280;63774;45.292;11.784;2022-11-15T03:45:27;102182.17;;;20.55
69552;BMP280;63774;45.292;11.784;2022-11-15T03:48:05;102181.47;;;20.54
69552;BMP280;63774;45.292;11.784;2022-11-15T03:50:33;102186.51;;;20.54
69552;BMP280;63774;45.292;11.784;2022-11-15T03:52:59;102193.59;;;20.55
69552;BMP280;63774;45.292;11.784;2022-11-15T03:55:24;102182.27;;;20.54
69552;BMP280;63774;45.292;11.784;2022-11-15T03:57:52;102178.94;;;20.54
69552;BMP280;63774;45.292;11.784;2022-11-15T04:00:19;102181.79;;;20.55
69552;BMP280;63774;45.292;11.784;2022-11-15T04:02:44;102178.35;;;20.54
69552;BMP280;63774;45.292;11.784;2022-11-15T04:05:10;102179.86;;;20.55
69552;BMP280;63774;45.292;11.784;2022-11-15T04:07:35;102180.81;;;20.57
69552;BMP280;63774;45.292;11.784;2022-11-15T04:10:01;102180.56;;;20.55
69552;BMP280;63774;45.292;11.784;2022-11-15T04:12:34;102181.30;;;20.54
69552;BMP280;63774;45.292;11.784;2022-11-15T04:15:06;102185.75;;;20.55
69552;BMP280;63774;45.292;11.784;2022-11-15T04:17:36;102182.85;;;20.54
69552;BMP280;63774;45.292;11.784;2022-11-15T04:20:04;102176.36;;;20.54
69552;BMP280;63774;45.292;11.784;2022-11-15T04:22:48;102176.13;;;20.54
69552;BMP280;63774;45.292;11.784;2022-11-15T04:25:32;102173.48;;;20.54
69552;BMP280;63774;45.292;11.784;2022-11-15T04:27:57;102174.92;;;20.53
69552;BMP280;63774;45.292;11.784;2022-11-15T04:30:23;102177.14;;;20.54
69552;BMP280;63774;45.292;11.784;2022-11-15T04:32:48;102180.30;;;20.55
69552;BMP280;63774;45.292;11.784;2022-11-15T04:35:14;102180.05;;;20.55
69552;BMP280;63774;45.292;11.784;2022-11-15T04:37:40;102173.25;;;20.55
69552;BMP280;63774;45.292;11.784;2022-11-15T04:40:06;102169.27;;;20.55
69552;BMP280;63774;45.292;11.784;2022-11-15T04:42:32;102164.00;;;20.54
69552;BMP280;63774;45.292;11.784;2022-11-15T04:44:57;102166.55;;;20.55
69552;BMP280;63774;45.292;11.784;2022-11-15T04:47:23;102167.17;;;20.55
69552;BMP280;63774;45.292;11.784;2022-11-15T04:49:48;102164.70;;;20.54
69552;BMP280;63774;45.292;11.784;2022-11-15T04:52:14;102167.52;;;20.53
69552;BMP280;63774;45.292;11.784;2022-11-15T04:54:39;102167.23;;;20.53
69552;BMP280;63774;45.292;11.784;2022-11-15T04:57:07;102170.39;;;20.53
69552;BMP280;63774;45.292;11.784;2022-11-15T04:59:32;102176.52;;;20.53
69552;BMP280;63774;45.292;11.784;2022-11-15T05:01:58;102174.60;;;20.53
69552;BMP280;63774;45.292;11.784;2022-11-15T05:04:23;102172.11;;;20.53
69552;BMP280;63774;45.292;11.784;2022-11-15T05:06:50;102164.74;;;20.53
69552;BMP280;63774;45.292;11.784;2022-11-15T05:09:17;102158.00;;;20.52
69552;BMP280;63774;45.292;11.784;2022-11-15T05:11:43;102157.29;;;20.52
69552;BMP280;63774;45.292;11.784;2022-11-15T05:14:09;102161.20;;;20.52
69552;BMP280;63774;45.292;11.784;2022-11-15T05:16:34;102157.08;;;20.51
69552;BMP280;63774;45.292;11.784;2022-11-15T05:19:00;102152.96;;;20.52
69552;BMP280;63774;45.292;11.784;2022-11-15T05:21:25;102151.10;;;20.51
69552;BMP280;63774;45.292;11.784;2022-11-15T05:23:51;102150.38;;;20.51
69552;BMP280;63774;45.292;11.784;2022-11-15T05:26:17;102157.83;;;20.53
69552;BMP280;63774;45.292;11.784;2022-11-15T05:28:43;102161.94;;;20.52
69552;BMP280;63774;45.292;11.784;2022-11-15T05:31:11;102162.48;;;20.51
69552;BMP280;63774;45.292;11.784;2022-11-15T05:33:39;102161.67;;;20.53
69552;BMP280;63774;45.292;11.784;2022-11-15T05:36:17;102161.66;;;20.51
69552;BMP280;63774;45.292;11.784;2022-11-15T05:38:44;102157.95;;;20.47
69552;BMP280;63774;45.292;11.784;2022-11-15T05:41:10;102153.23;;;20.45
69552;BMP280;63774;45.292;11.784;2022-11-15T05:43:37;102151.63;;;20.43
69552;BMP280;63774;45.292;11.784;2022-11-15T05:46:04;102152.38;;;20.42
69552;BMP280;63774;45.292;11.784;2022-11-15T05:48:31;102155.16;;;20.40
69552;BMP280;63774;45.292;11.784;2022-11-15T05:50:57;102161.61;;;20.41
69552;BMP280;63774;45.292;11.784;2022-11-15T05:53:24;102170.11;;;20.41
69552;BMP280;63774;45.292;11.784;2022-11-15T05:55:51;102171.08;;;20.40
69552;BMP280;63774;45.292;11.784;2022-11-15T05:58:17;102172.52;;;20.39
69552;BMP280;63774;45.292;11.784;2022-11-15T06:00:43;102178.05;;;20.39
69552;BMP280;63774;45.292;11.784;2022-11-15T06:03:09;102180.73;;;20.39
69552;BMP280;63774;45.292;11.784;2022-11-15T06:05:34;102180.55;;;20.40
69552;BMP280;63774;45.292;11.784;2022-11-15T06:08:00;102180.77;;;20.39
69552;BMP280;63774;45.292;11.784;2022-11-15T06:10:25;102186.44;;;20.39
69552;BMP280;63774;45.292;11.784;2022-11-15T06:13:03;102192.42;;;20.40
69552;BMP280;63774;45.292;11.784;2022-11-15T06:15:29;102186.30;;;20.39
69552;BMP280;63774;45.292;11.784;2022-11-15T06:17:56;102181.91;;;20.39
69552;BMP280;63774;45.292;11.784;2022-11-15T06:20:24;102178.21;;;20.38
69552;BMP280;63774;45.292;11.784;2022-11-15T06:22:49;102172.07;;;20.37
69552;BMP280;63774;45.292;11.784;2022-11-15T06:25:14;102176.65;;;20.37
69552;BMP280;63774;45.292;11.784;2022-11-15T06:27:40;102180.45;;;20.36
69552;BMP280;63774;45.292;11.784;2022-11-15T06:30:06;102181.27;;;20.35
69552;BMP280;63774;45.292;11.784;2022-11-15T06:32:31;102176.80;;;20.34
69552;BMP280;63774;45.292;11.784;2022-11-15T06:34:57;102177.52;;;20.33
69552;BMP280;63774;45.292;11.784;2022-11-15T06:37:22;102187.63;;;20.34
69552;BMP280;63774;45.292;11.784;2022-11-15T06:39:47;102192.77;;;20.34
69552;BMP280;63774;45.292;11.784;2022-11-15T06:42:13;102189.89;;;20.32
69552;BMP280;63774;45.292;11.784;2022-11-15T06:44:38;102189.61;;;20.32
69552;BMP280;63774;45.292;11.784;2022-11-15T06:47:04;102200.98;;;20.31
69552;BMP280;63774;45.292;11.784;2022-11-15T06:49:29;102191.89;;;20.30
69552;BMP280;63774;45.292;11.784;2022-11-15T06:51:54;102193.02;;;20.29
69552;BMP280;63774;45.292;11.784;2022-11-15T06:54:20;102196.84;;;20.30
69552;BMP280;63774;45.292;11.784;2022-11-15T06:56:46;102198.73;;;20.30
69552;BMP280;63774;45.292;11.784;2022-11-15T06:59:11;102205.79;;;20.31
69552;BMP280;63774;45.292;11.784;2022-11-15T07:01:37;102205.30;;;20.30
69552;BMP280;63774;45.292;11.784;2022-11-15T07:04:02;102205.30;;;20.32
69552;BMP280;63774;45.292;11.784;2022-11-15T07:06:28;102201.45;;;20.31
69552;BMP280;63774;45.292;11.784;2022-11-15T07:08:53;102202.89;;;20.30
69552;BMP280;63774;45.292;11.784;2022-11-15T07:11:18;102198.41;;;20.30
69552;BMP280;63774;45.292;11.784;2022-11-15T07:13:44;102202.02;;;20.30
69552;BMP280;63774;45.292;11.784;2022-11-15T07:16:09;102204.41;;;20.30
69552;BMP280;63774;45.292;11.784;2022-11-15T07:18:37;102199.45;;;20.29
69552;BMP280;63774;45.292;11.784;2022-11-15T07:21:04;102201.26;;;20.29
69552;BMP280;63774;45.292;11.784;2022-11-15T07:23:30;102196.81;;;20.28
69552;BMP280;63774;45.292;11.784;2022-11-15T07:25:57;102199.66;;;20.28
69552;BMP280;63774;45.292;11.784;2022-11-15T07:28:24;102202.91;;;20.29
69552;BMP280;63774;45.292;11.784;2022-11-15T07:30:50;102206.80;;;20.29
69552;BMP280;63774;45.292;11.784;2022-11-15T07:33:15;102209.70;;;20.30
69552;BMP280;63774;45.292;11.784;2022-11-15T07:35:41;102208.13;;;20.29
69552;BMP280;63774;45.292;11.784;2022-11-15T07:38:08;102208.40;;;20.30
69552;BMP280;63774;45.292;11.784;2022-11-15T07:40:33;102203.02;;;20.29
69552;BMP280;63774;45.292;11.784;2022-11-15T07:43:04;102201.61;;;20.30
69552;BMP280;63774;45.292;11.784;2022-11-15T07:45:30;102205.80;;;20.29
69552;BMP280;63774;45.292;11.784;2022-11-15T07:47:56;102205.04;;;20.28
69552;BMP280;63774;45.292;11.784;2022-11-15T07:50:23;102195.67;;;20.28
69552;BMP280;63774;45.292;11.784;2022-11-15T07:52:54;102196.23;;;20.28
69552;BMP280;63774;45.292;11.784;2022-11-15T07:55:21;102195.10;;;20.29
69552;BMP280;63774;45.292;11.784;2022-11-15T07:57:46;102199.73;;;20.29
69552;BMP280;63774;45.292;11.784;2022-11-15T08:00:12;102201.77;;;20.28
69552;BMP280;63774;45.292;11.784;2022-11-15T08:02:38;102199.14;;;20.29
69552;BMP280;63774;45.292;11.784;2022-11-15T08:05:03;102200.38;;;20.29
69552;BMP280;63774;45.292;11.784;2022-11-15T08:07:30;102198.06;;;20.27
69552;BMP280;63774;45.292;11.784;2022-11-15T08:09:56;102192.21;;;20.28
69552;BMP280;63774;45.292;11.784;2022-11-15T08:12:23;102196.08;;;20.27
69552;BMP280;63774;45.292;11.784;2022-11-15T08:14:49;102200.91;;;20.27
69552;BMP280;63774;45.292;11.784;2022-11-15T08:17:14;102202.39;;;20.28
69552;BMP280;63774;45.292;11.784;2022-11-15T08:19:40;102202.74;;;20.28
69552;BMP280;63774;45.292;11.784;2022-11-15T08:22:06;102203.52;;;20.28
69552;BMP280;63774;45.292;11.784;2022-11-15T08:24:32;102204.70;;;20.28
69552;BMP280;63774;45.292;11.784;2022-11-15T08:26:57;102203.38;;;20.28
69552;BMP280;63774;45.292;11.784;2022-11-15T08:29:23;102202.18;;;20.28
69552;BMP280;63774;45.292;11.784;2022-11-15T08:31:48;102197.41;;;20.27
69552;BMP280;63774;45.292;11.784;2022-11-15T08:34:13;102197.65;;;20.27
69552;BMP280;63774;45.292;11.784;2022-11-15T08:36:39;102203.02;;;20.27
69552;BMP280;63774;45.292;11.784;2022-11-15T08:39:04;102205.56;;;20.26
69552;BMP280;63774;45.292;11.784;2022-11-15T08:41:36;102206.05;;;20.28
69552;BMP280;63774;45.292;11.784;2022-11-15T08:44:02;102204.45;;;20.28
69552;BMP280;63774;45.292;11.784;2022-11-15T08:46:27;102204.45;;;20.28
69552;BMP280;63774;45.292;11.784;2022-11-15T08:48:53;102202.98;;;20.28
69552;BMP280;63774;45.292;11.784;2022-11-15T08:51:19;102199.61;;;20.28
69552;BMP280;63774;45.292;11.784;2022-11-15T08:53:44;102193.19;;;20.28
69552;BMP280;63774;45.292;11.784;2022-11-15T08:56:12;102183.11;;;20.27
69552;BMP280;63774;45.292;11.784;2022-11-15T08:58:37;102175.67;;;20.26
69552;BMP280;63774;45.292;11.784;2022-11-15T09:01:04;102168.88;;;20.26
69552;BMP280;63774;45.292;11.784;2022-11-15T09:03:29;102164.37;;;20.25
69552;BMP280;63774;45.292;11.784;2022-11-15T09:05:56;102169.45;;;20.25
69552;BMP280;63774;45.292;11.784;2022-11-15T09:08:22;102179.45;;;20.27
69552;BMP280;63774;45.292;11.784;2022-11-15T09:10:48;102182.73;;;20.26
69552;BMP280;63774;45.292;11.784;2022-11-15T09:13:13;102186.82;;;20.25
69552;BMP280;63774;45.292;11.784;2022-11-15T09:15:39;102183.53;;;20.25
69552;BMP280;63774;45.292;11.784;2022-11-15T09:18:05;102180.44;;;20.24
69552;BMP280;63774;45.292;11.784;2022-11-15T09:20:31;102179.83;;;20.24
69552;BMP280;63774;45.292;11.784;2022-11-15T09:23:04;102180.50;;;20.25
69552;BMP280;63774;45.292;11.784;2022-11-15T09:25:30;102177.83;;;20.25
69552;BMP280;63774;45.292;11.784;2022-11-15T09:27:56;102174.40;;;20.25
69552;BMP280;63774;45.292;11.784;2022-11-15T09:30:23;102173.88;;;20.24
69552;BMP280;63774;45.292;11.784;2022-11-15T09:32:49;102174.14;;;20.24
69552;BMP280;63774;45.292;11.784;2022-11-15T09:35:14;102171.83;;;20.25
69552;BMP280;63774;45.292;11.784;2022-11-15T09:37:40;102171.42;;;20.24
69552;BMP280;63774;45.292;11.784;2022-11-15T09:40:09;102171.17;;;20.23
69552;BMP280;63774;45.292;11.784;2022-11-15T09:50:45;102168.52;;;20.23
69552;BMP280;63774;45.292;11.784;2022-11-15T09:53:14;102169.83;;;20.23
69552;BMP280;63774;45.292;11.784;2022-11-15T09:56:03;102172.15;;;20.23
69552;BMP280;63774;45.292;11.784;2022-11-15T10:02:09;102164.42;;;20.23
69552;BMP280;63774;45.292;11.784;2022-11-15T10:04:39;102157.20;;;20.22
69552;BMP280;63774;45.292;11.784;2022-11-15T10:07:25;102151.21;;;20.21
69552;BMP280;63774;45.292;11.784;2022-11-15T10:10:29;102148.16;;;20.22
69552;BMP280;63774;45.292;11.784;2022-11-15T10:12:56;102146.33;;;20.22
69552;BMP280;63774;45.292;11.784;2022-11-15T10:15:23;102147.39;;;20.20
69552;BMP280;63774;45.292;11.784;2022-11-15T10:20:27;102143.84;;;20.20
69552;BMP280;63774;45.292;11.784;2022-11-15T10:22:59;102138.56;;;20.20
69552;BMP280;63774;45.292;11.784;2022-11-15T10:30:21;102127.18;;;20.20
69552;BMP280;63774;45.292;11.784;2022-11-15T10:32:47;102117.52;;;20.20
69552;BMP280;63774;45.292;11.784;2022-11-15T10:35:39;102114.77;;;20.20
69552;BMP280;63774;45.292;11.784;2022-11-15T10:38:07;102111.66;;;20.20
69552;BMP280;63774;45.292;11.784;2022-11-15T10:40:34;102115.13;;;20.20
69552;BMP280;63774;45.292;11.784;2022-11-15T10:45:35;102116.19;;;20.19
69552;BMP280;63774;45.292;11.784;2022-11-15T10:48:21;102113.96;;;20.19
69552;BMP280;63774;45.292;11.784;2022-11-15T10:50:49;102106.23;;;20.19
69552;BMP280;63774;45.292;11.784;2022-11-15T10:53:41;102097.93;;;20.18
69552;BMP280;63774;45.292;11.784;2022-11-15T10:56:14;102093.77;;;20.19
69552;BMP280;63774;45.292;11.784;2022-11-15T10:58:44;102085.67;;;20.17
69552;BMP280;63774;45.292;11.784;2022-11-15T11:01:20;102084.57;;;20.16
69552;BMP280;63774;45.292;11.784;2022-11-15T11:04:04;102079.77;;;20.16
69552;BMP280;63774;45.292;11.784;2022-11-15T11:06:30;102073.89;;;20.16
69552;BMP280;63774;45.292;11.784;2022-11-15T11:09:05;102071.59;;;20.15
69552;BMP280;63774;45.292;11.784;2022-11-15T11:11:51;102065.74;;;20.16
69552;BMP280;63774;45.292;11.784;2022-11-15T11:14:24;102065.56;;;20.17
69552;BMP280;63774;45.292;11.784;2022-11-15T11:25:36;102046.06;;;20.17
69552;BMP280;63774;45.292;11.784;2022-11-15T11:30:45;102039.02;;;20.17
69552;BMP280;63774;45.292;11.784;2022-11-15T11:38:53;102028.27;;;20.18
69552;BMP280;63774;45.292;11.784;2022-11-15T11:44:30;102014.56;;;20.15
69552;BMP280;63774;45.292;11.784;2022-11-15T11:47:10;102017.29;;;20.15
69552;BMP280;63774;45.292;11.784;2022-11-15T11:49:39;102015.34;;;20.13
69552;BMP280;63774;45.292;11.784;2022-11-15T11:52:24;102017.02;;;20.14
69552;BMP280;63774;45.292;11.784;2022-11-15T11:55:19;102010.96;;;20.13
69552;BMP280;63774;45.292;11.784;2022-11-15T11:58:06;102003.95;;;20.11
69552;BMP280;63774;45.292;11.784;2022-11-15T12:00:40;102001.66;;;20.10
69552;BMP280;63774;45.292;11.784;2022-11-15T12:03:43;101998.52;;;20.11
69552;BMP280;63774;45.292;11.784;2022-11-15T12:06:33;101997.35;;;20.11
69552;BMP280;63774;45.292;11.784;2022-11-15T12:09:55;101993.27;;;20.11
69552;BMP280;63774;45.292;11.784;2022-11-15T12:12:11;101985.66;;;20.09
69552;BMP280;63774;45.292;11.784;2022-11-15T12:17:10;101977.55;;;20.10
69552;BMP280;63774;45.292;11.784;2022-11-15T12:19:37;101969.02;;;20.09
69552;BMP280;63774;45.292;11.784;2022-11-15T12:22:22;101966.59;;;20.08
69552;BMP280;63774;45.292;11.784;2022-11-15T12:25:03;101961.96;;;20.09
69552;BMP280;63774;45.292;11.784;2022-11-15T12:27:36;101953.98;;;20.09
69552;BMP280;63774;45.292;11.784;2022-11-15T12:30:10;101943.55;;;20.07
69552;BMP280;63774;45.292;11.784;2022-11-15T12:32:38;101940.99;;;20.06
69552;BMP280;63774;45.292;11.784;2022-11-15T12:35:20;101938.79;;;20.07
69552;BMP280;63774;45.292;11.784;2022-11-15T12:37:51;101934.24;;;20.08
69552;BMP280;63774;45.292;11.784;2022-11-15T12:45:34;101929.39;;;20.11
69552;BMP280;63774;45.292;11.784;2022-11-15T12:56:18;101910.63;;;20.11
69552;BMP280;63774;45.292;11.784;2022-11-15T12:58:57;101904.09;;;20.11
69552;BMP280;63774;45.292;11.784;2022-11-15T13:11:58;101892.92;;;20.10
69552;BMP280;63774;45.292;11.784;2022-11-15T13:19:52;101892.95;;;20.09
69552;BMP280;63774;45.292;11.784;2022-11-15T13:22:18;101894.41;;;20.07
69552;BMP280;63774;45.292;11.784;2022-11-15T13:25:03;101892.40;;;20.07
69552;BMP280;63774;45.292;11.784;2022-11-15T13:27:29;101894.44;;;20.10
69552;BMP280;63774;45.292;11.784;2022-11-15T13:29:55;101890.08;;;20.10
69552;BMP280;63774;45.292;11.784;2022-11-15T13:32:21;101890.55;;;20.11
69552;BMP280;63774;45.292;11.784;2022-11-15T13:34:48;101890.51;;;20.12
69552;BMP280;63774;45.292;11.784;2022-11-15T13:39:47;101890.59;;;20.12
69552;BMP280;63774;45.292;11.784;2022-11-15T13:42:15;101889.73;;;20.12
69552;BMP280;63774;45.292;11.784;2022-11-15T13:44:54;101887.91;;;20.12
69552;BMP280;63774;45.292;11.784;2022-11-15T13:47:20;101887.20;;;20.13
69552;BMP280;63774;45.292;11.784;2022-11-15T13:49:46;101881.98;;;20.11
69552;BMP280;63774;45.292;11.784;2022-11-15T13:52:14;101881.83;;;20.11
69552;BMP280;63774;45.292;11.784;2022-11-15T13:54:45;101880.69;;;20.11
69552;BMP280;63774;45.292;11.784;2022-11-15T13:57:19;101882.86;;;20.11
69552;BMP280;63774;45.292;11.784;2022-11-15T13:59:52;101879.85;;;20.09
69552;BMP280;63774;45.292;11.784;2022-11-15T14:02:21;101879.73;;;20.09
69552;BMP280;63774;45.292;11.784;2022-11-15T14:04:59;101875.14;;;20.10
69552;BMP280;63774;45.292;11.784;2022-11-15T14:07:27;101873.70;;;20.10
69552;BMP280;63774;45.292;11.784;2022-11-15T14:09:54;101872.23;;;20.11
69552;BMP280;63774;45.292;11.784;2022-11-15T14:14:56;101868.13;;;20.13
69552;BMP280;63774;45.292;11.784;2022-11-15T14:19:55;101862.68;;;20.13
69552;BMP280;63774;45.292;11.784;2022-11-15T14:22:22;101858.27;;;20.13
69552;BMP280;63774;45.292;11.784;2022-11-15T14:25:06;101857.96;;;20.12
69552;BMP280;63774;45.292;11.784;2022-11-15T14:27:33;101856.84;;;20.13
69552;BMP280;63774;45.292;11.784;2022-11-15T14:29:59;101854.73;;;20.13
69552;BMP280;63774;45.292;11.784;2022-11-15T14:32:30;101856.56;;;20.12
69552;BMP280;63774;45.292;11.784;2022-11-15T14:35:02;101853.00;;;20.12
69552;BMP280;63774;45.292;11.784;2022-11-15T14:37:33;101850.45;;;20.11
69552;BMP280;63774;45.292;11.784;2022-11-15T14:40:04;101847.49;;;20.11
69552;BMP280;63774;45.292;11.784;2022-11-15T14:42:31;101848.32;;;20.11
69552;BMP280;63774;45.292;11.784;2022-11-15T14:44:56;101847.34;;;20.11
69552;BMP280;63774;45.292;11.784;2022-11-15T14:47:22;101842.42;;;20.09
69552;BMP280;63774;45.292;11.784;2022-11-15T14:49:49;101843.08;;;20.10
69552;BMP280;63774;45.292;11.784;2022-11-15T14:52:33;101838.77;;;20.09
69552;BMP280;63774;45.292;11.784;2022-11-15T14:55:02;101831.63;;;20.09
69552;BMP280;63774;45.292;11.784;2022-11-15T14:57:28;101830.25;;;20.11
69552;BMP280;63774;45.292;11.784;2022-11-15T14:59:54;101820.85;;;20.09
69552;BMP280;63774;45.292;11.784;2022-11-15T15:02:22;101818.83;;;20.11
69552;BMP280;63774;45.292;11.784;2022-11-15T15:04:48;101814.19;;;20.10
69552;BMP280;63774;45.292;11.784;2022-11-15T15:07:14;101815.58;;;20.10
69552;BMP280;63774;45.292;11.784;2022-11-15T15:09:40;101815.48;;;20.11
69552;BMP280;63774;45.292;11.784;2022-11-15T15:12:23;101815.02;;;20.11
69552;BMP280;63774;45.292;11.784;2022-11-15T15:14:49;101811.91;;;20.11
69552;BMP280;63774;45.292;11.784;2022-11-15T15:17:17;101806.04;;;20.09
69552;BMP280;63774;45.292;11.784;2022-11-15T15:19:43;101803.65;;;20.08
69552;BMP280;63774;45.292;11.784;2022-11-15T15:22:14;101802.80;;;20.08
69552;BMP280;63774;45.292;11.784;2022-11-15T15:24:41;101803.48;;;20.08
69552;BMP280;63774;45.292;11.784;2022-11-15T15:27:06;101801.56;;;20.08
69552;BMP280;63774;45.292;11.784;2022-11-15T15:29:31;101800.52;;;20.09
69552;BMP280;63774;45.292;11.784;2022-11-15T15:31:57;101801.12;;;20.09
69552;BMP280;63774;45.292;11.784;2022-11-15T15:34:22;101797.73;;;20.10
69552;BMP280;63774;45.292;11.784;2022-11-15T15:36:48;101799.56;;;20.11
69552;BMP280;63774;45.292;11.784;2022-11-15T15:39:13;101796.11;;;20.11
69552;BMP280;63774;45.292;11.784;2022-11-15T15:41:39;101792.33;;;20.12
69552;BMP280;63774;45.292;11.784;2022-11-15T15:44:04;101790.70;;;20.14
69552;BMP280;63774;45.292;11.784;2022-11-15T15:46:30;101790.00;;;20.15
69552;BMP280;63774;45.292;11.784;2022-11-15T15:48:55;101787.30;;;20.15